Airfield :
LOGIN :

Register | Disclaimer

   EN    FR    IT 

 










Legend :    VFR   Marginal VFR   IFR   Intensive IFR   Very Intensive IFR
Visi :
Ceiling :
>= 8 km
>= 3000ft
5 to 8 km
1000 to 3000 ft
1500m to 5 km
500 to 1000 ft
800 to 1500m
200 to 500 ft
< 800m
< 200 ft
Symbols :   Thunderstorms  Fog  Heavy snow  Heavy precipitations  Wind > 20 kt
SIGMETs :     Misc.  Thunderstorms  Icing  Turbulence  Mountain Waves  Volcanic Ashes







- Airport Elevation : 659 ft
- IATA code : LGG


EBLG - Liège

CURRENT METAR :
  • 220620Z 31005KT 280V340 9999 BKN014 09/06 Q1020 NOSIG

EXPIRED METARs :
  • 220550Z 32005KT 290V350 9999 FEW011 BKN015 09/06 Q1020 NOSIG
  • 220520Z 30004KT 270V340 9999 FEW011 BKN015 09/07 Q1020 NOSIG
  • 220450Z 33004KT 300V360 7000 SCT011 BKN015 09/07 Q1020 NOSIG
  • 220420Z 33004KT 6000 BKN010 09/07 Q1019 NOSIG
  • 220350Z 29004KT 6000 BKN010 09/07 Q1019 NOSIG

TAF TAF EBLG
Valid from the 22 at 06:00 until the 23 at 12:00 UTC


220500Z 2206/2312 33004KT 8000 BKN013
PROB30
TEMPO 2206/2207 4000 BR BKN009
BECMG 2207/2209 SCT017
No reported NOTAMs for that airfield.



MET'MAP, your aeronautical weather chart ! - Copyright ORBIFLY December 2007 - Disclaimer

ORBIFLY MET'MAP TEAM :

Programming & Development : Alexandra Zaïnal
Concept & Development : Baudouin d'Aumeries
Co-Development & Prog : Marc-Olivier Méhu
Technical & hardware support : Manuel Goepfert

Contact : metmap@orbifly.com




SOURCES & CREDITS :

   NOAA